createdAt,value
2018-11-10T00:00:37.338Z,6.40
2018-11-10T00:01:37.330Z,5.60
2018-11-10T00:02:37.321Z,7.30
2018-11-10T00:03:37.290Z,5.90
2018-11-10T00:04:37.267Z,5.10
2018-11-10T00:05:37.240Z,6.10
2018-11-10T00:06:37.213Z,7.00
2018-11-10T00:07:37.197Z,6.20
2018-11-10T00:08:37.171Z,6.60
2018-11-10T00:09:37.151Z,6.90
2018-11-10T00:10:37.122Z,7.10
2018-11-10T00:11:37.094Z,7.10
2018-11-10T00:12:37.064Z,5.40
2018-11-10T00:13:37.055Z,5.50
2018-11-10T00:14:37.039Z,5.70
2018-11-10T00:15:37.003Z,6.80
2018-11-10T00:16:37.054Z,7.00
2018-11-10T00:17:36.971Z,7.30
2018-11-10T00:18:36.962Z,7.10
2018-11-10T00:19:36.922Z,4.90
2018-11-10T00:20:36.897Z,5.10
2018-11-10T00:21:36.878Z,4.90
2018-11-10T00:22:36.861Z,5.90
2018-11-10T00:23:36.832Z,6.70
2018-11-10T00:24:36.807Z,6.40
2018-11-10T00:25:36.798Z,6.20
2018-11-10T00:26:36.760Z,8.20
2018-11-10T00:27:36.732Z,8.60
2018-11-10T00:28:36.720Z,7.40
2018-11-10T00:29:36.689Z,7.80
2018-11-10T00:30:36.669Z,8.90
2018-11-10T00:31:36.645Z,7.90
2018-11-10T00:32:36.624Z,8.70
2018-11-10T00:33:36.606Z,8.00
2018-11-10T00:34:36.632Z,6.60
2018-11-10T00:35:36.556Z,8.30
2018-11-10T00:36:36.518Z,7.60
2018-11-10T00:37:36.507Z,7.50
2018-11-10T00:38:36.485Z,5.50
2018-11-10T00:39:36.462Z,6.40
2018-11-10T00:40:36.446Z,7.00
2018-11-10T00:41:36.426Z,6.10
2018-11-10T00:42:36.402Z,6.60
2018-11-10T00:43:36.374Z,5.90
2018-11-10T00:44:36.356Z,6.50
2018-11-10T00:45:36.335Z,7.10
2018-11-10T00:46:36.307Z,6.20
2018-11-10T00:47:36.286Z,6.70
2018-11-10T00:48:36.265Z,6.50
2018-11-10T00:49:36.229Z,7.50
2018-11-10T00:50:36.201Z,6.30
2018-11-10T00:51:36.193Z,6.70
2018-11-10T00:52:36.173Z,5.90
2018-11-10T00:53:36.151Z,8.40
2018-11-10T00:54:36.117Z,5.40
2018-11-10T00:55:36.094Z,5.50
2018-11-10T00:56:36.070Z,7.00
2018-11-10T00:57:36.052Z,7.90
2018-11-10T00:58:36.032Z,6.80
2018-11-10T00:59:36.009Z,7.30
2018-11-10T01:00:35.994Z,7.40
2018-11-10T01:01:35.952Z,7.30
2018-11-10T01:02:35.940Z,6.60
2018-11-10T01:03:35.908Z,6.60
2018-11-10T01:04:35.882Z,8.90
2018-11-10T01:05:35.895Z,7.70
2018-11-10T01:06:35.851Z,9.20
2018-11-10T01:07:35.830Z,8.50
2018-11-10T01:08:35.804Z,9.40
2018-11-10T01:09:35.784Z,8.90
2018-11-10T01:10:35.755Z,7.50
2018-11-10T01:11:35.733Z,8.80
2018-11-10T01:12:35.710Z,8.50
2018-11-10T01:13:35.689Z,9.10
2018-11-10T01:14:35.658Z,7.20
2018-11-10T01:15:35.643Z,7.70
2018-11-10T01:16:35.617Z,8.00
2018-11-10T01:17:35.597Z,7.70
2018-11-10T01:18:35.575Z,8.60
2018-11-10T01:19:35.558Z,7.80
2018-11-10T01:20:35.523Z,7.80
2018-11-10T01:21:35.505Z,9.30
2018-11-10T01:22:35.486Z,9.10
2018-11-10T01:23:35.466Z,7.30
2018-11-10T01:24:35.424Z,8.20
2018-11-10T01:25:35.417Z,7.80
2018-11-10T01:26:35.402Z,4.80
2018-11-10T01:27:35.409Z,5.40
2018-11-10T01:28:35.348Z,6.90
2018-11-10T01:29:35.327Z,8.30
2018-11-10T01:30:35.302Z,8.30
2018-11-10T01:31:35.269Z,6.00
2018-11-10T01:32:35.258Z,8.50
2018-11-10T01:33:35.264Z,6.70
2018-11-10T01:34:35.214Z,7.10
2018-11-10T01:35:35.185Z,7.50
2018-11-10T01:36:35.166Z,6.20
2018-11-10T01:37:35.149Z,6.10
2018-11-10T01:38:35.121Z,7.40
2018-11-10T01:39:35.095Z,8.10
2018-11-10T01:40:35.068Z,6.90
2018-11-10T01:41:35.088Z,7.60
2018-11-10T01:42:35.022Z,7.80
2018-11-10T01:43:35.002Z,7.70
2018-11-10T01:44:34.978Z,8.10
2018-11-10T01:45:34.959Z,7.90
2018-11-10T01:46:34.935Z,8.30
2018-11-10T01:47:34.911Z,8.80
2018-11-10T01:48:34.891Z,9.00
2018-11-10T01:49:34.869Z,9.00
2018-11-10T01:50:34.843Z,7.20
2018-11-10T01:51:34.825Z,6.80
2018-11-10T01:52:34.787Z,7.80
2018-11-10T01:53:34.772Z,7.60
2018-11-10T01:54:34.753Z,11.60
2018-11-10T01:55:34.733Z,9.40
2018-11-10T01:56:34.700Z,9.20
2018-11-10T01:57:34.679Z,8.00
2018-11-10T01:58:34.648Z,8.50
2018-11-10T01:59:34.635Z,7.90
2018-11-10T02:00:34.600Z,9.40
2018-11-10T02:01:34.583Z,8.80
2018-11-10T02:02:34.575Z,7.00
2018-11-10T02:03:34.550Z,7.20
2018-11-10T02:04:34.559Z,7.80
2018-11-10T02:05:34.495Z,7.90
2018-11-10T02:06:34.516Z,6.90
2018-11-10T02:07:34.455Z,6.60
2018-11-10T02:08:34.417Z,8.60
2018-11-10T02:09:34.402Z,8.30
2018-11-10T02:10:34.392Z,10.00
2018-11-10T02:11:34.374Z,8.30
2018-11-10T02:12:34.345Z,8.70
2018-11-10T02:13:34.316Z,6.90
2018-11-10T02:14:34.351Z,7.80
2018-11-10T02:15:34.273Z,7.50
2018-11-10T02:16:34.249Z,6.90
2018-11-10T02:17:34.232Z,8.20
2018-11-10T02:18:34.191Z,8.20
2018-11-10T02:19:34.165Z,6.70
2018-11-10T02:20:34.160Z,7.20
2018-11-10T02:21:34.117Z,7.90
2018-11-10T02:22:34.096Z,9.40
2018-11-10T02:23:34.093Z,8.10
2018-11-10T02:24:34.060Z,7.80
2018-11-10T02:25:34.040Z,8.50
2018-11-10T02:26:34.022Z,8.40
2018-11-10T02:27:33.999Z,8.60
2018-11-10T02:28:33.979Z,8.70
2018-11-10T02:29:33.947Z,7.40
2018-11-10T02:30:33.927Z,7.40
2018-11-10T02:31:33.909Z,8.50
2018-11-10T02:32:33.886Z,8.00
2018-11-10T02:33:33.867Z,8.20
2018-11-10T02:34:33.840Z,8.40
2018-11-10T02:35:33.813Z,8.00
2018-11-10T02:36:33.790Z,9.30
2018-11-10T02:37:33.770Z,7.70
2018-11-10T02:38:33.783Z,8.20
2018-11-10T02:39:33.728Z,9.30
2018-11-10T02:40:33.706Z,7.30
2018-11-10T02:41:33.680Z,7.00
2018-11-10T02:42:33.661Z,8.00
2018-11-10T02:43:33.624Z,7.90
2018-11-10T02:44:33.617Z,8.30
2018-11-10T02:45:33.576Z,7.80
2018-11-10T02:46:33.572Z,8.00
2018-11-10T02:47:33.542Z,8.70
2018-11-10T02:48:33.528Z,8.00
2018-11-10T02:49:33.484Z,7.30
2018-11-10T02:50:33.475Z,5.70
2018-11-10T02:51:33.457Z,5.70
2018-11-10T02:52:33.477Z,7.10
2018-11-10T02:53:33.410Z,7.20
2018-11-10T02:54:33.382Z,6.90
2018-11-10T02:55:33.361Z,6.00
2018-11-10T02:56:33.339Z,7.90
2018-11-10T02:57:33.312Z,7.80
2018-11-10T02:58:33.287Z,5.90
2018-11-10T02:59:33.253Z,6.00
2018-11-10T03:00:33.251Z,6.70
2018-11-10T03:01:33.224Z,6.00
2018-11-10T03:02:33.186Z,8.70
2018-11-10T03:03:33.165Z,8.00
2018-11-10T03:04:33.140Z,7.80
2018-11-10T03:05:33.128Z,7.60
2018-11-10T03:06:33.108Z,7.70
2018-11-10T03:07:33.082Z,7.90
2018-11-10T03:08:33.067Z,8.40
2018-11-10T03:09:33.049Z,8.50
2018-11-10T03:10:33.073Z,8.50
2018-11-10T03:11:32.981Z,9.40
2018-11-10T03:12:32.971Z,9.20
2018-11-10T03:13:32.941Z,8.50
2018-11-10T03:14:32.929Z,7.50
2018-11-10T03:15:32.941Z,8.20
2018-11-10T03:16:32.944Z,7.60
2018-11-10T03:17:32.857Z,9.50
2018-11-10T03:18:32.835Z,8.40
2018-11-10T03:19:32.800Z,8.20
2018-11-10T03:20:32.793Z,9.50
2018-11-10T03:21:32.769Z,8.30
2018-11-10T03:22:32.754Z,8.90
2018-11-10T03:23:32.720Z,8.50
2018-11-10T03:24:32.692Z,7.30
2018-11-10T03:25:32.675Z,7.60
2018-11-10T03:26:32.635Z,9.20
2018-11-10T03:27:32.629Z,8.40
2018-11-10T03:28:32.607Z,7.20
2018-11-10T03:29:32.577Z,8.50
2018-11-10T03:30:32.561Z,7.70
2018-11-10T03:31:32.540Z,8.20
2018-11-10T03:32:32.514Z,6.60
2018-11-10T03:33:32.486Z,7.40
2018-11-10T03:34:32.476Z,8.40
2018-11-10T03:35:32.447Z,8.10
2018-11-10T03:36:32.422Z,9.20
2018-11-10T03:37:32.400Z,9.20
2018-11-10T03:38:32.368Z,9.10
2018-11-10T03:39:32.353Z,8.90
2018-11-10T03:40:32.331Z,9.00
2018-11-10T03:41:32.311Z,9.10
2018-11-10T03:42:32.292Z,8.30
2018-11-10T03:43:32.264Z,8.90
2018-11-10T03:44:32.237Z,8.70
2018-11-10T03:45:32.217Z,9.00
2018-11-10T03:46:32.181Z,8.90
2018-11-10T03:47:32.174Z,9.20
2018-11-10T03:48:32.143Z,8.30
2018-11-10T03:49:32.110Z,8.20
2018-11-10T03:50:32.106Z,8.30
2018-11-10T03:51:32.087Z,7.80
2018-11-10T03:52:32.062Z,8.00
2018-11-10T03:53:32.023Z,8.80
2018-11-10T03:54:32.015Z,8.40
2018-11-10T03:55:31.974Z,8.60
2018-11-10T03:56:31.970Z,8.20
2018-11-10T03:57:31.951Z,8.40
2018-11-10T03:58:31.918Z,7.90
2018-11-10T03:59:31.908Z,7.60
2018-11-10T04:00:31.880Z,7.50
2018-11-10T04:01:31.855Z,7.40
2018-11-10T04:02:31.833Z,7.50
2018-11-10T04:03:31.812Z,7.10
2018-11-10T04:04:31.776Z,7.90
2018-11-10T04:05:31.767Z,7.10
2018-11-10T04:06:31.742Z,7.90
2018-11-10T04:07:31.725Z,6.40
2018-11-10T04:08:31.702Z,6.90
2018-11-10T04:09:31.678Z,6.30
2018-11-10T04:10:31.662Z,7.10
2018-11-10T04:11:31.625Z,6.80
2018-11-10T04:12:31.607Z,5.50
2018-11-10T04:13:31.581Z,6.00
2018-11-10T04:14:31.566Z,5.80
2018-11-10T04:15:31.538Z,7.10
2018-11-10T04:16:31.514Z,5.80
2018-11-10T04:17:31.497Z,6.10
2018-11-10T04:18:31.473Z,6.10
2018-11-10T04:19:31.447Z,5.80
2018-11-10T04:20:31.413Z,5.90
2018-11-10T04:21:31.406Z,5.50
2018-11-10T04:22:31.382Z,5.60
2018-11-10T04:23:31.366Z,5.30
2018-11-10T04:24:31.337Z,5.80
2018-11-10T04:25:31.307Z,5.90
2018-11-10T04:26:31.287Z,6.10
2018-11-10T04:27:31.273Z,6.00
2018-11-10T04:28:31.243Z,5.80
2018-11-10T04:29:31.224Z,5.80
2018-11-10T04:30:31.209Z,5.50
2018-11-10T04:31:31.180Z,5.40
2018-11-10T04:32:31.153Z,6.20
2018-11-10T04:33:31.120Z,5.90
2018-11-10T04:34:31.091Z,5.80
2018-11-10T04:35:31.089Z,6.40
2018-11-10T04:36:31.061Z,6.40
2018-11-10T04:37:31.043Z,6.00
2018-11-10T04:38:31.007Z,6.10
2018-11-10T04:39:30.980Z,4.90
2018-11-10T04:40:30.972Z,5.80
2018-11-10T04:41:30.957Z,6.20
2018-11-10T04:42:30.921Z,6.20
2018-11-10T04:43:30.909Z,6.00
2018-11-10T04:44:30.882Z,6.10
2018-11-10T04:45:30.843Z,6.80
2018-11-10T04:46:30.819Z,5.40
2018-11-10T04:47:30.816Z,6.60
2018-11-10T04:48:30.773Z,5.70
2018-11-10T04:49:30.748Z,5.70
2018-11-10T04:50:30.748Z,5.50
2018-11-10T04:51:30.724Z,6.10
2018-11-10T04:52:30.696Z,5.50
2018-11-10T04:53:30.678Z,5.90
2018-11-10T04:54:30.650Z,5.60
2018-11-10T04:55:30.629Z,5.30
2018-11-10T04:56:30.604Z,4.60
2018-11-10T04:57:30.587Z,5.10
2018-11-10T04:58:30.548Z,4.90
2018-11-10T04:59:30.539Z,4.90
2018-11-10T05:00:30.499Z,4.80
2018-11-10T05:01:30.544Z,3.90
2018-11-10T05:02:30.473Z,3.40
2018-11-10T05:03:30.434Z,3.50
2018-11-10T05:04:30.421Z,4.20
2018-11-10T05:05:30.397Z,4.30
2018-11-10T05:06:30.375Z,4.00
2018-11-10T05:07:30.359Z,3.90
2018-11-10T05:08:30.319Z,4.00
2018-11-10T05:09:30.308Z,4.50
2018-11-10T05:10:30.287Z,4.50
2018-11-10T05:11:30.263Z,4.50
2018-11-10T05:12:30.246Z,4.20
2018-11-10T05:13:30.220Z,4.40
2018-11-10T05:14:30.195Z,4.20
2018-11-10T05:15:30.174Z,4.50
2018-11-10T05:16:30.151Z,3.90
2018-11-10T05:17:30.125Z,4.10
2018-11-10T05:18:30.106Z,4.60
2018-11-10T05:19:30.084Z,3.80
2018-11-10T05:20:30.057Z,3.90
2018-11-10T05:21:30.042Z,4.00
2018-11-10T05:22:30.002Z,4.20
2018-11-10T05:23:29.978Z,3.70
2018-11-10T05:24:29.953Z,3.60
2018-11-10T05:25:29.933Z,3.70
2018-11-10T05:26:29.918Z,3.40
2018-11-10T05:27:29.895Z,3.50
2018-11-10T05:28:29.877Z,3.40
2018-11-10T05:29:29.846Z,3.50
2018-11-10T05:30:29.834Z,3.40
2018-11-10T05:31:29.807Z,3.70
2018-11-10T05:32:29.786Z,3.70
2018-11-10T05:33:29.764Z,3.90
2018-11-10T05:34:29.737Z,3.90
2018-11-10T05:35:29.711Z,3.60
2018-11-10T05:36:29.697Z,3.80
2018-11-10T05:37:29.673Z,3.80
2018-11-10T05:38:29.647Z,3.80
2018-11-10T05:39:29.622Z,4.00
2018-11-10T05:40:29.599Z,4.10
2018-11-10T05:41:29.583Z,3.80
2018-11-10T05:42:29.554Z,4.20
2018-11-10T05:43:29.529Z,3.50
2018-11-10T05:44:29.509Z,4.30
2018-11-10T05:45:29.483Z,4.30
2018-11-10T05:46:29.458Z,4.40
2018-11-10T05:47:29.438Z,4.60
2018-11-10T05:48:29.411Z,5.00
2018-11-10T05:49:29.381Z,3.70
2018-11-10T05:50:29.360Z,4.40
2018-11-10T05:51:29.338Z,5.10
2018-11-10T05:52:29.311Z,5.10
2018-11-10T05:53:29.287Z,5.00
2018-11-10T05:54:29.282Z,4.50
2018-11-10T05:55:29.256Z,5.40
2018-11-10T05:56:29.235Z,5.60
2018-11-10T05:57:29.209Z,4.80
2018-11-10T05:58:29.179Z,5.10
2018-11-10T05:59:29.163Z,5.60
2018-11-10T06:00:29.145Z,4.50
2018-11-10T06:01:29.122Z,5.10
2018-11-10T06:02:29.083Z,5.60
2018-11-10T06:03:29.060Z,5.00
2018-11-10T06:04:29.034Z,4.90
2018-11-10T06:05:29.011Z,5.10
2018-11-10T06:06:28.994Z,5.60
2018-11-10T06:07:28.988Z,5.20
2018-11-10T06:08:28.959Z,4.50
2018-11-10T06:09:28.990Z,5.60
2018-11-10T06:10:29.064Z,5.50
2018-11-10T06:11:28.893Z,5.10
2018-11-10T06:12:28.864Z,4.20
2018-11-10T06:13:28.828Z,4.40
2018-11-10T06:14:28.820Z,4.60
2018-11-10T06:15:28.794Z,4.20
2018-11-10T06:16:28.772Z,4.40
2018-11-10T06:17:28.758Z,4.80
2018-11-10T06:18:28.717Z,5.20
2018-11-10T06:19:28.712Z,4.60
2018-11-10T06:20:28.684Z,5.70
2018-11-10T06:21:28.656Z,5.60
2018-11-10T06:22:28.636Z,5.80
2018-11-10T06:23:28.618Z,4.80
2018-11-10T06:24:28.593Z,4.90
2018-11-10T06:25:28.566Z,5.50
2018-11-10T06:26:28.543Z,5.50
2018-11-10T06:27:28.555Z,5.70
2018-11-10T06:28:28.482Z,5.90
2018-11-10T06:29:28.462Z,5.90
2018-11-10T06:30:28.448Z,5.90
2018-11-10T06:31:28.429Z,6.40
2018-11-10T06:32:28.455Z,6.50
2018-11-10T06:33:28.381Z,6.40
2018-11-10T06:34:28.360Z,5.90
2018-11-10T06:35:28.337Z,6.30
2018-11-10T06:36:28.316Z,6.40
2018-11-10T06:37:28.292Z,6.40
2018-11-10T06:38:28.269Z,5.40
2018-11-10T06:39:28.241Z,5.10
2018-11-10T06:40:28.209Z,4.90
2018-11-10T06:41:28.342Z,4.60
2018-11-10T06:42:28.175Z,5.60
2018-11-10T06:43:28.148Z,6.30
2018-11-10T06:44:28.123Z,5.40
2018-11-10T06:45:28.104Z,6.10
2018-11-10T06:46:28.068Z,6.30
2018-11-10T06:47:28.047Z,5.90
2018-11-10T06:48:28.033Z,6.70
2018-11-10T06:49:28.010Z,5.70
2018-11-10T06:50:27.992Z,6.40
2018-11-10T06:51:27.969Z,5.70
2018-11-10T06:52:27.948Z,5.70
2018-11-10T06:53:27.917Z,5.30
2018-11-10T06:54:27.883Z,6.00
2018-11-10T06:55:27.871Z,6.00
2018-11-10T06:56:27.846Z,6.00
2018-11-10T06:57:27.827Z,6.10
2018-11-10T06:58:27.812Z,5.70
2018-11-10T06:59:27.784Z,6.20
2018-11-10T07:00:27.758Z,6.00
2018-11-10T07:01:27.737Z,5.40
2018-11-10T07:02:27.715Z,4.60
2018-11-10T07:03:27.732Z,5.10
2018-11-10T07:04:27.666Z,5.30
2018-11-10T07:05:27.643Z,5.40
2018-11-10T07:06:27.605Z,5.70
2018-11-10T07:07:27.583Z,6.10
2018-11-10T07:08:27.562Z,6.80
2018-11-10T07:09:27.563Z,5.80
2018-11-10T07:10:27.517Z,6.20
2018-11-10T07:11:27.510Z,5.80
2018-11-10T07:12:27.490Z,6.80
2018-11-10T07:13:27.457Z,5.30
2018-11-10T07:14:27.439Z,5.80
2018-11-10T07:15:27.416Z,5.10
2018-11-10T07:16:27.396Z,5.00
2018-11-10T07:17:27.399Z,5.40
2018-11-10T07:18:27.352Z,5.00
2018-11-10T07:19:27.321Z,6.20
2018-11-10T07:20:27.301Z,6.00
2018-11-10T07:21:27.331Z,6.60
2018-11-10T07:22:27.245Z,5.90
2018-11-10T07:23:27.232Z,6.30
2018-11-10T07:24:27.210Z,5.00
2018-11-10T07:25:27.187Z,6.00
2018-11-10T07:26:27.166Z,6.00
2018-11-10T07:27:27.141Z,5.70
2018-11-10T07:28:27.117Z,5.70
2018-11-10T07:29:27.095Z,6.00
2018-11-10T07:30:27.054Z,5.80
2018-11-10T07:31:27.048Z,5.40
2018-11-10T07:32:27.027Z,5.20
2018-11-10T07:33:27.000Z,5.30
2018-11-10T07:34:26.978Z,5.70
2018-11-10T07:35:26.959Z,6.10
2018-11-10T07:36:26.937Z,5.90
2018-11-10T07:37:26.927Z,5.20
2018-11-10T07:38:26.894Z,5.60
2018-11-10T07:39:26.865Z,6.00
2018-11-10T07:40:26.843Z,5.80
2018-11-10T07:41:26.825Z,6.70
2018-11-10T07:42:26.796Z,6.10
2018-11-10T07:43:26.769Z,6.60
2018-11-10T07:44:26.750Z,7.00
2018-11-10T07:45:26.730Z,5.50
2018-11-10T07:46:26.704Z,7.30
2018-11-10T07:47:26.669Z,7.40
2018-11-10T07:48:26.662Z,7.00
2018-11-10T07:49:26.762Z,7.20
2018-11-10T07:50:26.611Z,6.00
2018-11-10T07:51:26.641Z,5.20
2018-11-10T07:52:26.547Z,5.50
2018-11-10T07:53:26.530Z,5.70
2018-11-10T07:54:26.527Z,6.50
2018-11-10T07:55:26.496Z,6.50
2018-11-10T07:56:26.457Z,6.70
2018-11-10T07:57:26.451Z,7.50
2018-11-10T07:58:26.430Z,7.00
2018-11-10T07:59:26.389Z,6.40
2018-11-10T08:00:26.430Z,5.70
2018-11-10T08:01:26.346Z,6.50
2018-11-10T08:02:26.340Z,6.40
2018-11-10T08:03:26.319Z,7.50
2018-11-10T08:04:26.424Z,6.80
2018-11-10T08:05:26.268Z,6.80
2018-11-10T08:06:26.251Z,6.70
2018-11-10T08:07:26.221Z,5.40
2018-11-10T08:08:26.197Z,5.00
2018-11-10T08:09:26.173Z,6.50
2018-11-10T08:10:26.152Z,7.80
2018-11-10T08:11:26.127Z,7.40
2018-11-10T08:12:26.105Z,7.30
2018-11-10T08:13:26.082Z,6.90
2018-11-10T08:14:26.061Z,7.20
2018-11-10T08:15:26.047Z,5.80
2018-11-10T08:16:26.012Z,5.80
2018-11-10T08:17:25.978Z,5.50
2018-11-10T08:18:25.989Z,6.80
2018-11-10T08:19:25.947Z,5.80
2018-11-10T08:20:25.921Z,7.30
2018-11-10T08:21:25.909Z,6.90
2018-11-10T08:22:25.883Z,5.40
2018-11-10T08:23:25.843Z,7.10
2018-11-10T08:24:25.820Z,7.60
2018-11-10T08:25:25.789Z,7.80
2018-11-10T08:26:25.794Z,6.80
2018-11-10T08:27:25.758Z,6.50
2018-11-10T08:28:25.738Z,7.40
2018-11-10T08:29:25.709Z,5.40
2018-11-10T08:30:25.692Z,5.90
2018-11-10T08:31:25.786Z,5.70
2018-11-10T08:32:25.637Z,6.30
2018-11-10T08:33:25.617Z,6.00
2018-11-10T08:34:25.600Z,6.00
2018-11-10T08:35:25.578Z,6.00
2018-11-10T08:36:25.561Z,5.40
2018-11-10T08:37:25.534Z,5.60
2018-11-10T08:38:25.510Z,6.20
2018-11-10T08:39:25.491Z,5.50
2018-11-10T08:40:25.468Z,5.00
2018-11-10T08:41:25.446Z,4.50
2018-11-10T08:42:25.403Z,4.30
2018-11-10T08:43:25.382Z,5.30
2018-11-10T08:44:25.360Z,4.20
2018-11-10T08:45:25.340Z,5.80
2018-11-10T08:46:25.330Z,5.50
2018-11-10T08:47:25.312Z,5.60
2018-11-10T08:48:25.284Z,5.30
2018-11-10T08:49:25.356Z,4.80
2018-11-10T08:50:25.232Z,4.70
2018-11-10T08:51:25.209Z,5.00
2018-11-10T08:52:25.196Z,5.20
2018-11-10T08:53:25.165Z,4.80
2018-11-10T08:54:25.150Z,4.60
2018-11-10T08:55:25.122Z,5.20
2018-11-10T08:56:25.099Z,6.60
2018-11-10T08:57:25.091Z,6.20
2018-11-10T08:58:25.054Z,6.20
2018-11-10T08:59:25.023Z,5.50
2018-11-10T09:00:25.007Z,5.70
2018-11-10T09:01:24.983Z,5.90
2018-11-10T09:02:24.958Z,5.90
2018-11-10T09:03:24.938Z,5.90
2018-11-10T09:04:24.914Z,5.60
2018-11-10T09:05:24.891Z,5.50
2018-11-10T09:06:24.870Z,5.80
2018-11-10T09:07:24.827Z,6.90
2018-11-10T09:08:24.819Z,6.40
2018-11-10T09:09:24.787Z,6.30
2018-11-10T09:10:24.782Z,5.90
2018-11-10T09:11:24.752Z,6.10
2018-11-10T09:12:24.732Z,5.90
2018-11-10T09:13:24.703Z,6.30
2018-11-10T09:14:24.683Z,6.20
2018-11-10T09:15:24.666Z,5.70
2018-11-10T09:16:24.645Z,5.80
2018-11-10T09:17:24.621Z,6.30
2018-11-10T09:18:24.598Z,6.40
2018-11-10T09:19:24.570Z,7.20
2018-11-10T09:20:24.549Z,7.70
2018-11-10T09:21:24.620Z,5.90
2018-11-10T09:22:24.492Z,7.00
2018-11-10T09:23:24.481Z,4.00
2018-11-10T09:24:24.457Z,5.00
2018-11-10T09:25:24.438Z,5.30
2018-11-10T09:26:24.397Z,7.20
2018-11-10T09:27:24.375Z,6.40
2018-11-10T09:28:24.366Z,6.90
2018-11-10T09:29:24.342Z,8.80
2018-11-10T09:30:24.321Z,7.90
2018-11-10T09:31:24.305Z,7.20
2018-11-10T09:32:24.282Z,7.00
2018-11-10T09:33:24.241Z,5.70
2018-11-10T09:34:24.216Z,5.40
2018-11-10T09:35:24.198Z,5.90
2018-11-10T09:36:24.208Z,5.30
2018-11-10T09:37:24.150Z,6.10
2018-11-10T09:38:24.143Z,6.40
2018-11-10T09:39:24.127Z,6.00
2018-11-10T09:40:24.104Z,6.50
2018-11-10T09:41:24.079Z,5.60
2018-11-10T09:42:24.198Z,6.10
2018-11-10T09:43:24.027Z,5.80
2018-11-10T09:44:24.006Z,5.20
2018-11-10T09:45:23.987Z,6.40
2018-11-10T09:46:23.960Z,6.20
2018-11-10T09:47:23.921Z,4.40
2018-11-10T09:48:23.897Z,3.80
2018-11-10T09:49:23.884Z,4.00
2018-11-10T09:50:23.875Z,3.90
2018-11-10T09:51:23.848Z,4.90
2018-11-10T09:52:23.830Z,5.30
2018-11-10T09:53:23.801Z,4.80
2018-11-10T09:54:23.783Z,5.10
2018-11-10T09:55:23.759Z,5.60
2018-11-10T09:56:23.736Z,6.30
2018-11-10T09:57:23.717Z,5.90
2018-11-10T09:58:23.690Z,6.00
2018-11-10T09:59:23.669Z,6.80
2018-11-10T10:00:23.649Z,6.60
2018-11-10T10:01:23.752Z,6.10
2018-11-10T10:02:23.939Z,6.00
2018-11-10T10:03:23.585Z,7.00
2018-11-10T10:04:23.561Z,7.20
2018-11-10T10:05:23.540Z,6.30
2018-11-10T10:06:23.518Z,7.60
2018-11-10T10:07:23.495Z,7.10
2018-11-10T10:08:23.476Z,7.60
2018-11-10T10:09:23.458Z,7.20
2018-11-10T10:10:23.432Z,7.50
2018-11-10T10:11:23.391Z,7.20
2018-11-10T10:12:23.385Z,7.00
2018-11-10T10:13:23.360Z,7.10
2018-11-10T10:14:23.345Z,6.70
2018-11-10T10:15:23.326Z,6.50
2018-11-10T10:16:23.466Z,6.50
2018-11-10T10:17:23.277Z,6.30
2018-11-10T10:18:23.251Z,6.70
2018-11-10T10:19:23.230Z,7.10
2018-11-10T10:20:23.215Z,6.90
2018-11-10T10:21:23.191Z,6.30
2018-11-10T10:22:23.168Z,6.90
2018-11-10T10:23:23.148Z,7.20
2018-11-10T10:24:23.128Z,7.20
2018-11-10T10:25:23.106Z,7.00
2018-11-10T10:26:23.081Z,6.90
2018-11-10T10:27:23.061Z,6.00
2018-11-10T10:28:23.114Z,6.70
2018-11-10T10:29:23.016Z,6.50
2018-11-10T10:30:22.988Z,7.40
2018-11-10T10:31:22.961Z,7.50
2018-11-10T10:32:22.951Z,7.50
2018-11-10T10:33:22.922Z,8.10
2018-11-10T10:34:23.035Z,9.30
2018-11-10T10:35:23.097Z,8.30
2018-11-10T10:36:22.855Z,8.30
2018-11-10T10:37:22.842Z,7.70
2018-11-10T10:38:22.813Z,7.60
2018-11-10T10:39:22.803Z,8.40
2018-11-10T10:40:22.784Z,8.00
2018-11-10T10:41:22.760Z,7.90
2018-11-10T10:42:22.748Z,8.40
2018-11-10T10:43:22.723Z,8.60
2018-11-10T10:44:22.699Z,8.00
2018-11-10T10:45:22.684Z,7.30
2018-11-10T10:46:22.663Z,8.00
2018-11-10T10:47:22.639Z,9.00
2018-11-10T10:48:22.626Z,7.70
2018-11-10T10:49:22.595Z,7.20
2018-11-10T10:50:22.577Z,7.70
2018-11-10T10:51:22.558Z,7.10
2018-11-10T10:52:22.529Z,7.80
2018-11-10T10:53:22.496Z,7.90
2018-11-10T10:54:22.492Z,8.60
2018-11-10T10:55:22.472Z,8.00
2018-11-10T10:56:22.518Z,8.20
2018-11-10T10:57:22.433Z,7.40
2018-11-10T10:58:22.415Z,7.50
2018-11-10T10:59:22.402Z,7.40
2018-11-10T11:00:22.366Z,7.80
2018-11-10T11:01:22.346Z,8.20
2018-11-10T11:02:22.333Z,8.00
2018-11-10T11:03:22.357Z,7.70
2018-11-10T11:04:22.289Z,8.60
2018-11-10T11:05:22.275Z,8.90
2018-11-10T11:06:22.244Z,8.20
2018-11-10T11:07:22.231Z,7.50
2018-11-10T11:08:22.210Z,8.40
2018-11-10T11:09:22.262Z,8.90
2018-11-10T11:10:22.174Z,8.60
2018-11-10T11:11:22.155Z,8.90
2018-11-10T11:12:22.138Z,8.10
2018-11-10T11:13:22.112Z,7.80
2018-11-10T11:14:22.096Z,8.10
2018-11-10T11:15:22.204Z,8.20
2018-11-10T11:16:22.053Z,7.80
2018-11-10T11:17:22.015Z,8.30
2018-11-10T11:18:22.008Z,9.80
2018-11-10T11:19:21.994Z,8.40
2018-11-10T11:20:21.980Z,9.10
2018-11-10T11:21:21.958Z,9.40
2018-11-10T11:22:21.935Z,8.90
2018-11-10T11:23:21.921Z,9.30
2018-11-10T11:24:21.890Z,10.10
2018-11-10T11:25:21.879Z,9.00
2018-11-10T11:26:21.858Z,8.50
2018-11-10T11:27:21.838Z,7.90
2018-11-10T11:28:21.813Z,7.70
2018-11-10T11:29:21.921Z,8.10
2018-11-10T11:30:21.770Z,8.90
2018-11-10T11:31:21.741Z,7.90
2018-11-10T11:32:21.731Z,7.50
2018-11-10T11:33:21.732Z,7.40
2018-11-10T11:34:21.697Z,8.70
2018-11-10T11:35:21.767Z,8.10
2018-11-10T11:36:21.664Z,8.30
2018-11-10T11:37:21.645Z,9.40
2018-11-10T11:38:21.623Z,8.70
2018-11-10T11:39:21.612Z,7.70
2018-11-10T11:40:21.576Z,7.80
2018-11-10T11:41:21.722Z,7.50
2018-11-10T11:42:21.543Z,7.80
2018-11-10T11:43:21.521Z,7.70
2018-11-10T11:44:21.520Z,7.90
2018-11-10T11:45:21.487Z,9.70
2018-11-10T11:46:21.489Z,9.40
2018-11-10T11:47:21.467Z,7.80
2018-11-10T11:48:21.454Z,7.80
2018-11-10T11:49:21.437Z,7.40
2018-11-10T11:50:21.423Z,7.60
2018-11-10T11:51:21.395Z,7.60
2018-11-10T11:52:21.388Z,7.50
2018-11-10T11:53:21.368Z,9.60
2018-11-10T11:54:21.339Z,10.50
2018-11-10T11:55:21.321Z,9.80
2018-11-10T11:56:21.323Z,9.50
2018-11-10T11:57:21.284Z,8.50
2018-11-10T11:58:21.427Z,9.70
2018-11-10T11:59:21.272Z,8.90
2018-11-10T12:00:21.250Z,8.40
2018-11-10T12:01:21.233Z,8.70
2018-11-10T12:02:21.330Z,8.70
2018-11-10T12:03:21.207Z,8.90
2018-11-10T12:04:21.187Z,8.30
2018-11-10T12:05:21.170Z,7.90
2018-11-10T12:06:21.159Z,8.60
2018-11-10T12:07:21.137Z,8.90
2018-11-10T12:08:21.127Z,9.30
2018-11-10T12:09:21.111Z,9.30
2018-11-10T12:10:21.094Z,8.60
2018-11-10T12:11:21.080Z,10.00
2018-11-10T12:12:21.062Z,9.70
2018-11-10T12:13:21.096Z,9.40
2018-11-10T12:14:21.035Z,9.10
2018-11-10T12:15:21.127Z,7.80
2018-11-10T12:16:27.182Z,8.00
2018-11-10T12:17:20.989Z,8.60
2018-11-10T12:18:20.976Z,9.20
2018-11-10T12:19:20.946Z,7.90
2018-11-10T12:20:20.947Z,8.50
2018-11-10T12:21:20.919Z,7.90
2018-11-10T12:22:20.918Z,9.20
2018-11-10T12:23:20.903Z,8.20
2018-11-10T12:24:20.885Z,8.90
2018-11-10T12:25:20.862Z,8.30
2018-11-10T12:26:20.859Z,8.70
2018-11-10T12:27:20.867Z,8.20
2018-11-10T12:28:20.828Z,9.20
2018-11-10T12:29:20.819Z,10.40
2018-11-10T12:30:20.799Z,10.30
2018-11-10T12:31:20.791Z,11.00
2018-11-10T12:32:20.775Z,9.40
2018-11-10T12:33:20.761Z,9.50
2018-11-10T12:34:20.739Z,9.00
2018-11-10T12:35:20.729Z,9.00
2018-11-10T12:36:20.707Z,9.30
2018-11-10T12:37:20.687Z,9.40
2018-11-10T12:38:20.672Z,9.10
2018-11-10T12:39:20.673Z,10.30
2018-11-10T12:40:20.659Z,8.40
2018-11-10T12:41:20.635Z,8.60
2018-11-10T12:42:20.618Z,8.50
2018-11-10T12:43:20.621Z,8.20
2018-11-10T12:44:20.607Z,8.50
2018-11-10T12:45:20.630Z,7.90
2018-11-10T12:46:20.564Z,8.30
2018-11-10T12:47:20.567Z,8.80
2018-11-10T12:48:20.544Z,8.60
2018-11-10T12:49:20.524Z,9.30
2018-11-10T12:50:20.526Z,9.10
2018-11-10T12:51:20.513Z,8.20
2018-11-10T12:52:20.565Z,6.80
2018-11-10T12:53:20.488Z,6.70
2018-11-10T12:54:20.477Z,6.40
2018-11-10T12:55:20.463Z,5.80
2018-11-10T12:56:20.449Z,5.60
2018-11-10T12:57:20.434Z,5.70
2018-11-10T12:58:20.430Z,5.70
2018-11-10T12:59:20.397Z,4.20
2018-11-10T13:00:20.397Z,4.40
2018-11-10T13:01:20.373Z,4.20
2018-11-10T13:02:20.375Z,4.70
2018-11-10T13:03:20.362Z,4.30
2018-11-10T13:04:20.348Z,5.70
2018-11-10T13:05:20.341Z,5.60
2018-11-10T13:06:20.331Z,5.60
2018-11-10T13:07:20.391Z,6.10
2018-11-10T13:08:20.451Z,7.20
2018-11-10T13:09:20.286Z,7.00
2018-11-10T13:10:20.276Z,5.90
2018-11-10T13:11:20.350Z,6.20
2018-11-10T13:12:20.243Z,5.60
2018-11-10T13:13:20.229Z,5.70
2018-11-10T13:14:20.230Z,5.50
2018-11-10T13:15:20.196Z,5.90
2018-11-10T13:16:20.184Z,4.90
2018-11-10T13:17:20.224Z,4.30
2018-11-10T13:18:20.163Z,4.70